Time;durP1;ratioP1;P1;durP2;ratioP2;P2;SDS_P1;SDS_P2;PMS_P1;PMS_P2;Temp;Humidity;BMP_temperature;BMP_pressure;BME280_temperature;BME280_humidity;BME280_pressure;Samples;Min_cycle;Max_cycle;Signal;HPM_P1;HPM_P2
2022/08/10 00:00:34;;;;;;;4.23;3.47;;;;;;;;;;5067215;28;20541;-76
2022/08/10 00:03:01;;;;;;;4.40;3.83;;;17.40;99.90;;;;;;5072075;28;20262;-75
2022/08/10 00:05:28;;;;;;;4.53;3.70;;;17.30;99.90;;;;;;5058532;28;20237;-73
2022/08/10 00:08:15;;;;;;;4.43;3.50;;;17.30;99.90;;;;;;5062687;28;20281;-74
2022/08/10 00:10:54;;;;;;;4.07;3.50;;;17.20;99.90;;;;;;5066416;28;20254;-75
2022/08/10 00:13:23;;;;;;;7.67;3.60;;;17.20;99.90;;;;;;5066718;28;20204;-75
2022/08/10 00:15:51;;;;;;;5.83;3.87;;;17.20;99.90;;;;;;5059368;28;20266;-74
2022/08/10 00:18:22;;;;;;;4.00;3.60;;;17.10;99.90;;;;;;5066073;28;20217;-74
2022/08/10 00:21:06;;;;;;;4.67;4.07;;;17.20;99.90;;;;;;5062233;28;20224;-75
2022/08/10 00:23:35;;;;;;;7.00;3.60;;;17.00;99.90;;;;;;5065698;28;20576;-74
2022/08/10 00:26:03;;;;;;;4.40;3.67;;;16.80;99.90;;;;;;5060082;28;20638;-75
2022/08/10 00:28:30;;;;;;;6.73;3.87;;;17.00;99.90;;;;;;5063170;28;20349;-74
2022/08/10 00:30:57;;;;;;;4.20;3.80;;;17.00;99.90;;;;;;5061709;28;20320;-74
2022/08/10 00:33:24;;;;;;;4.03;3.60;;;16.90;99.90;;;;;;5061285;28;20213;-75
2022/08/10 00:35:51;;;;;;;4.67;4.17;;;16.90;99.90;;;;;;5061010;28;20208;-74
2022/08/10 00:38:18;;;;;;;4.20;3.80;;;16.90;99.90;;;;;;5056933;28;20202;-75
2022/08/10 00:40:45;;;;;;;5.30;4.00;;;16.80;99.90;;;;;;5061766;28;20201;-74
2022/08/10 00:43:11;;;;;;;4.53;4.13;;;16.80;99.90;;;;;;5068642;28;20220;-74
2022/08/10 00:45:38;;;;;;;4.13;3.73;;;16.80;99.90;;;;;;5059630;28;20204;-74
2022/08/10 00:48:06;;;;;;;4.57;4.10;;;16.70;99.90;;;;;;5060983;28;20366;-74
2022/08/10 00:50:33;;;;;;;5.70;3.87;;;16.70;99.90;;;;;;5065203;28;20208;-75
2022/08/10 00:53:00;;;;;;;4.87;4.37;;;16.60;99.90;;;;;;5066364;28;20249;-74
2022/08/10 00:55:27;;;;;;;4.53;4.07;;;16.70;99.90;;;;;;5059036;28;20282;-75
2022/08/10 00:57:55;;;;;;;5.87;4.17;;;16.70;99.90;;;;;;5069194;28;20673;-75
2022/08/10 01:00:23;;;;;;;6.13;4.30;;;16.60;99.90;;;;;;5057936;28;20255;-74
2022/08/10 01:02:49;;;;;;;7.00;4.47;;;16.80;99.90;;;;;;5066086;28;20293;-74
2022/08/10 01:05:19;;;;;;;4.20;3.80;;;16.60;99.90;;;;;;5063285;28;20196;-75
2022/08/10 01:08:12;;;;;;;4.47;4.07;;;16.50;99.90;;;;;;5064447;28;20208;-74
2022/08/10 01:10:41;;;;;;;4.43;4.03;;;16.60;99.90;;;;;;5064475;28;20236;-74
2022/08/10 01:13:25;;;;;;;5.17;4.07;;;16.50;99.90;;;;;;5066408;28;20197;-75
2022/08/10 01:16:20;;;;;;;5.73;4.60;;;16.40;99.90;;;;;;5057372;28;20212;-75
2022/08/10 01:19:09;;;;;;;6.97;4.33;;;16.40;99.90;;;;;;5059940;28;20332;-74
2022/08/10 01:22:17;;;;;;;4.53;4.07;;;16.70;99.90;;;;;;5062671;28;20224;-76
2022/08/10 01:24:44;;;;;;;5.43;4.43;;;16.40;99.90;;;;;;5063178;28;20212;-74
2022/08/10 01:27:32;;;;;;;4.73;4.23;;;16.40;99.90;;;;;;5062728;28;20196;-75
2022/08/10 01:30:09;;;;;;;6.23;4.20;;;16.30;99.90;;;;;;5060564;28;20712;-75
2022/08/10 01:32:40;;;;;;;4.80;4.30;;;16.30;99.90;;;;;;5054389;28;20661;-76
2022/08/10 01:35:30;;;;;;;6.97;4.70;;;16.20;99.90;;;;;;5061365;28;20239;-73
2022/08/10 01:38:03;;;;;;;5.57;4.57;;;16.20;99.90;;;;;;5065840;28;20237;-74
2022/08/10 01:40:33;;;;;;;5.37;4.53;;;16.20;99.90;;;;;;5061507;28;20203;-74
2022/08/10 01:43:03;;;;;;;6.30;4.63;;;16.10;99.90;;;;;;5065808;28;20302;-75
2022/08/10 01:45:38;;;;;;;5.80;4.60;;;16.30;99.90;;;;;;5062021;28;20197;-74
2022/08/10 01:48:30;;;;;;;6.40;5.03;;;16.10;99.90;;;;;;5057079;28;20251;-75
2022/08/10 01:51:13;;;;;;;5.00;4.50;;;16.00;99.90;;;;;;5063849;28;20212;-74
2022/08/10 01:53:45;;;;;;;7.83;5.20;;;16.00;99.90;;;;;;5063578;28;20198;-74
2022/08/10 01:56:15;;;;;;;6.10;4.63;;;15.80;99.90;;;;;;5063563;28;20254;-74
2022/08/10 01:58:45;;;;;;;6.93;4.90;;;15.90;99.90;;;;;;5066804;28;20224;-75
2022/08/10 02:01:16;;;;;;;6.30;4.90;;;15.80;99.90;;;;;;5061533;28;20327;-74
2022/08/10 02:03:48;;;;;;;7.47;5.30;;;15.80;99.90;;;;;;5064941;28;20269;-75
2022/08/10 02:06:42;;;;;;;5.50;5.00;;;15.80;99.90;;;;;;5065167;28;20200;-75
2022/08/10 02:09:14;;;;;;;5.53;4.77;;;15.80;99.90;;;;;;5062281;28;20253;-74
2022/08/10 02:11:42;;;;;;;5.87;4.90;;;15.80;99.90;;;;;;5061834;28;20490;-75
2022/08/10 02:14:33;;;;;;;6.27;5.60;;;15.70;99.90;;;;;;5057713;28;20312;-74
2022/08/10 02:17:04;;;;;;;8.27;5.87;;;15.70;99.90;;;;;;5059379;28;20200;-73
2022/08/10 02:19:34;;;;;;;6.73;5.20;;;15.70;99.90;;;;;;5062067;28;20668;-74
2022/08/10 02:22:01;;;;;;;8.37;5.67;;;15.50;99.90;;;;;;5059166;28;20726;-74
2022/08/10 02:24:49;;;;;;;6.60;5.30;;;15.70;99.90;;;;;;5063120;28;20211;-78
2022/08/10 02:27:19;;;;;;;6.63;5.13;;;15.60;99.90;;;;;;5061948;28;20955;-74
2022/08/10 02:29:48;;;;;;;12.43;7.13;;;15.60;99.90;;;;;;5061465;28;20249;-74
2022/08/10 02:32:18;;;;;;;8.33;6.00;;;15.50;99.90;;;;;;5054387;28;20217;-73
2022/08/10 02:35:05;;;;;;;7.43;5.90;;;15.60;99.90;;;;;;5055399;28;20297;-74
2022/08/10 02:37:36;;;;;;;7.30;5.57;;;15.60;99.90;;;;;;5062600;28;20295;-74
2022/08/10 02:40:03;;;;;;;7.67;5.70;;;15.40;99.90;;;;;;5058615;28;20629;-75
2022/08/10 02:42:38;;;;;;;7.57;5.80;;;15.50;99.90;;;;;;5059831;28;20231;-74
2022/08/10 02:45:32;;;;;;;10.00;6.20;;;15.50;99.90;;;;;;5060971;28;20238;-74
2022/08/10 02:48:05;;;;;;;7.80;6.20;;;15.50;99.90;;;;;;5065227;28;20606;-76
2022/08/10 02:50:34;;;;;;;9.20;6.20;;;15.50;99.90;;;;;;5062183;28;20216;-74
2022/08/10 02:53:39;;;;;;;8.40;6.37;;;15.60;99.90;;;;;;5064366;28;20857;-75
2022/08/10 02:56:50;;;;;;;9.57;6.70;;;15.40;99.90;;;;;;5058988;28;20227;-73
2022/08/10 02:59:37;;;;;;;8.60;6.40;;;15.40;99.90;;;;;;5054161;28;20203;-76
2022/08/10 03:02:10;;;;;;;9.27;7.30;;;15.40;99.90;;;;;;5054660;28;20316;-75
2022/08/10 03:04:43;;;;;;;9.77;6.70;;;15.50;99.90;;;;;;5059173;28;20243;-73
2022/08/10 03:07:27;;;;;;;10.80;6.93;;;15.30;99.90;;;;;;5055270;28;20228;-76
2022/08/10 03:10:18;;;;;;;10.33;7.23;;;15.40;99.90;;;;;;5063824;28;20203;-75
2022/08/10 03:12:50;;;;;;;10.90;7.20;;;15.50;99.90;;;;;;5063573;28;20663;-75
2022/08/10 03:15:19;;;;;;;11.50;7.63;;;15.20;99.90;;;;;;5056243;28;20208;-74
2022/08/10 03:17:47;;;;;;;9.13;6.70;;;15.40;99.90;;;;;;5062739;28;20216;-73
2022/08/10 03:20:30;;;;;;;10.30;7.57;;;15.20;99.90;;;;;;5061105;28;20204;-76
2022/08/10 03:23:09;;;;;;;11.03;8.03;;;15.20;99.90;;;;;;5058215;28;20723;-76
2022/08/10 03:25:36;;;;;;;11.73;8.20;;;15.20;99.90;;;;;;5063058;28;20673;-73
2022/08/10 03:28:04;;;;;;;10.47;8.00;;;15.20;99.90;;;;;;5069509;28;20200;-72
2022/08/10 03:30:32;;;;;;;10.83;7.47;;;15.10;99.90;;;;;;5075402;28;20232;-73
2022/08/10 03:33:02;;;;;;;14.50;8.50;;;15.00;99.90;;;;;;5058951;28;20312;-74
2022/08/10 03:35:30;;;;;;;14.47;8.63;;;15.40;99.90;;;;;;5059147;28;20197;-73
2022/08/10 03:37:59;;;;;;;11.07;8.27;;;15.20;99.90;;;;;;5064555;28;20212;-73
2022/08/10 03:40:33;;;;;;;13.00;8.20;;;15.20;99.90;;;;;;5066114;28;20194;-74
2022/08/10 03:43:18;;;;;;;15.37;9.47;;;15.20;99.90;;;;;;5064151;28;20731;-73
2022/08/10 03:45:50;;;;;;;15.53;9.20;;;15.40;99.90;;;;;;5058293;28;20213;-74
2022/08/10 03:48:25;;;;;;;13.90;8.90;;;15.10;99.90;;;;;;5063176;28;20232;-74
2022/08/10 03:51:14;;;;;;;12.37;9.13;;;15.10;99.90;;;;;;5067382;28;20591;-74
2022/08/10 03:53:42;;;;;;;13.50;9.00;;;15.10;99.90;;;;;;5066462;28;20200;-74
2022/08/10 03:56:30;;;;;;;13.93;9.03;;;14.90;99.90;;;;;;5061022;28;20216;-76
2022/08/10 03:59:00;;;;;;;13.27;8.97;;;15.00;99.90;;;;;;5068533;28;20208;-74
2022/08/10 04:01:28;;;;;;;14.77;9.30;;;15.00;99.90;;;;;;5063589;28;20200;-74
2022/08/10 04:04:15;;;;;;;15.13;10.37;;;14.80;99.90;;;;;;5064199;28;20208;-74
2022/08/10 04:06:54;;;;;;;14.93;9.20;;;14.90;99.90;;;;;;5064553;28;20208;-74
2022/08/10 04:09:24;;;;;;;18.20;10.60;;;15.00;99.90;;;;;;5066712;28;20656;-76
2022/08/10 04:12:11;;;;;;;17.60;10.87;;;14.90;99.90;;;;;;5067922;28;20201;-75
2022/08/10 04:14:38;;;;;;;17.33;10.73;;;14.90;99.90;;;;;;5063875;28;20240;-75
2022/08/10 04:17:23;;;;;;;17.47;10.40;;;14.90;99.90;;;;;;5063858;28;20759;-75
2022/08/10 04:20:19;;;;;;;15.00;9.73;;;14.90;99.90;;;;;;5057338;28;20219;-74
2022/08/10 04:22:50;;;;;;;14.53;10.33;;;14.80;99.90;;;;;;5068005;28;20227;-76
2022/08/10 04:25:18;;;;;;;15.40;9.63;;;14.90;99.90;;;;;;5068766;28;20259;-76
2022/08/10 04:27:45;;;;;;;16.30;10.13;;;14.90;99.90;;;;;;5067022;28;20275;-75
2022/08/10 04:30:12;;;;;;;20.93;11.47;;;14.90;99.90;;;;;;5060130;28;20237;-74
2022/08/10 04:32:41;;;;;;;15.50;9.53;;;14.90;99.90;;;;;;5060681;28;20252;-74
2022/08/10 04:35:10;;;;;;;18.17;10.27;;;15.10;99.90;;;;;;5062236;28;20205;-74
2022/08/10 04:37:39;;;;;;;17.13;11.83;;;14.90;99.90;;;;;;5068277;28;20205;-75
2022/08/10 04:40:14;;;;;;;17.47;10.73;;;14.90;99.90;;;;;;5065952;28;20199;-76
2022/08/10 04:42:58;;;;;;;16.37;10.47;;;15.00;99.90;;;;;;5062063;28;20315;-76
2022/08/10 04:45:28;;;;;;;20.20;10.57;;;14.90;99.90;;;;;;5064456;28;20200;-75
2022/08/10 04:48:15;;;;;;;18.87;10.50;;;15.10;99.90;;;;;;5058249;28;20221;-76
2022/08/10 04:51:02;;;;;;;21.43;11.27;;;14.90;99.90;;;;;;5062360;28;20221;-74
2022/08/10 04:53:30;;;;;;;17.37;10.73;;;14.90;99.90;;;;;;5065050;28;20212;-75
2022/08/10 04:55:57;;;;;;;17.63;10.57;;;14.90;99.90;;;;;;5059821;28;20233;-75
2022/08/10 04:58:24;;;;;;;18.20;10.43;;;14.90;99.90;;;;;;5059918;28;20730;-75
2022/08/10 05:00:50;;;;;;;20.13;11.77;;;15.10;99.90;;;;;;5063289;28;20226;-75
2022/08/10 05:03:17;;;;;;;15.77;10.97;;;15.10;99.90;;;;;;5062364;28;20228;-75
2022/08/10 05:05:44;;;;;;;17.23;11.23;;;15.00;99.90;;;;;;5062218;28;20200;-76
2022/08/10 05:08:16;;;;;;;21.67;12.43;;;15.30;99.90;;;;;;5064273;28;20209;-76
2022/08/10 05:10:43;;;;;;;20.30;11.60;;;15.10;99.90;;;;;;5061084;28;20209;-74
2022/08/10 05:13:10;;;;;;;19.07;12.00;;;15.10;99.90;;;;;;5068752;28;20207;-74
2022/08/10 05:15:37;;;;;;;18.03;11.57;;;15.20;99.90;;;;;;5062403;28;20235;-74
2022/08/10 05:18:03;;;;;;;17.17;11.13;;;15.20;99.90;;;;;;5065758;28;20687;-76
2022/08/10 05:20:37;;;;;;;20.07;11.13;;;15.30;99.90;;;;;;5064882;28;20587;-74
2022/08/10 05:23:04;;;;;;;18.03;11.07;;;15.30;99.90;;;;;;5065862;28;20786;-74
2022/08/10 05:25:31;;;;;;;16.37;11.13;;;15.30;99.90;;;;;;5063793;28;20207;-75
2022/08/10 05:28:03;;;;;;;19.97;11.27;;;15.30;99.90;;;;;;5063292;28;20733;-75
2022/08/10 05:30:33;;;;;;;18.03;10.40;;;15.50;99.90;;;;;;5062107;28;20572;-74
2022/08/10 05:32:59;;;;;;;16.33;11.07;;;15.60;99.90;;;;;;5057372;28;20227;-75
2022/08/10 05:35:34;;;;;;;16.77;11.07;;;15.70;99.90;;;;;;5064236;28;20219;-75
2022/08/10 05:38:24;;;;;;;19.27;12.03;;;15.70;99.90;;;;;;5058557;28;20297;-75
2022/08/10 05:40:51;;;;;;;19.87;12.23;;;15.70;99.90;;;;;;5058410;28;20261;-76
2022/08/10 05:43:20;;;;;;;19.40;11.60;;;15.70;99.90;;;;;;5065044;28;20319;-76
2022/08/10 05:45:49;;;;;;;19.40;11.47;;;15.90;99.90;;;;;;5060380;28;20201;-75
2022/08/10 05:48:37;;;;;;;17.43;12.57;;;16.00;99.90;;;;;;5056556;28;21070;-76
2022/08/10 05:51:25;;;;;;;15.17;9.70;;;16.00;99.90;;;;;;5059779;28;20204;-75
2022/08/10 05:53:52;;;;;;;17.80;11.10;;;16.00;99.90;;;;;;5056892;28;20208;-75
2022/08/10 05:56:34;;;;;;;16.87;12.13;;;16.00;99.90;;;;;;5056588;28;20204;-76
2022/08/10 05:59:22;;;;;;;19.67;12.63;;;16.10;99.90;;;;;;5061634;28;20249;-78
2022/08/10 06:02:10;;;;;;;18.20;11.57;;;16.30;99.90;;;;;;5060610;28;20220;-76
2022/08/10 06:05:02;;;;;;;17.17;11.70;;;16.30;99.90;;;;;;5055203;28;20246;-75
2022/08/10 06:07:29;;;;;;;15.63;9.90;;;16.80;99.90;;;;;;5065800;28;20205;-75
2022/08/10 06:09:59;;;;;;;13.80;9.50;;;17.70;99.90;;;;;;5061364;28;20247;-76
2022/08/10 06:12:28;;;;;;;14.65;8.90;;;;;;;;;;5064414;28;20617;-76
2022/08/10 06:15:00;;;;;;;16.10;9.15;;;;;;;;;;5057830;28;20288;-75
2022/08/10 06:17:37;;;;;;;12.52;8.70;;;20.90;99.90;;;;;;5055383;28;20268;-77
2022/08/10 06:20:05;;;;;;;12.70;8.75;;;22.10;99.90;;;;;;5061795;28;20270;-75
2022/08/10 06:22:32;;;;;;;12.32;8.98;;;23.10;99.90;;;;;;5066534;28;20636;-77
2022/08/10 06:25:02;;;;;;;11.70;8.90;;;23.90;99.90;;;;;;5068807;28;20726;-77
2022/08/10 06:27:50;;;;;;;12.02;8.02;;;24.60;99.90;;;;;;5057355;28;20295;-76
2022/08/10 06:30:17;;;;;;;10.18;7.05;;;25.10;99.90;;;;;;5063616;28;20208;-76
2022/08/10 06:32:50;;;;;;;10.20;8.98;;;;;;;;;;5055382;28;20282;-76
2022/08/10 06:35:18;;;;;;;10.02;8.00;;;26.00;99.90;;;;;;5062735;28;20205;-75
2022/08/10 06:37:46;;;;;;;10.55;8.82;;;26.40;99.90;;;;;;5063919;28;20271;-75
2022/08/10 06:40:18;;;;;;;9.50;7.80;;;27.00;99.90;;;;;;5059412;28;20803;-75
2022/08/10 06:42:49;;;;;;;8.05;7.25;;;;;;;;;;5063652;28;20701;-74
2022/08/10 06:45:21;;;;;;;9.43;8.25;;;27.60;99.90;;;;;;5062848;28;20265;-75
2022/08/10 06:47:54;;;;;;;9.82;8.23;;;27.90;99.90;;;;;;5062711;28;20305;-77
2022/08/10 06:50:38;;;;;;;12.10;8.25;;;28.00;99.90;;;;;;5066027;28;20200;-75
2022/08/10 06:53:31;;;;;;;10.40;8.38;;;28.20;99.90;;;;;;5063225;28;20572;-75
2022/08/10 06:56:21;;;;;;;8.77;6.68;;;28.30;99.90;;;;;;5059964;28;20212;-75
2022/08/10 06:59:11;;;;;;;9.02;7.63;;;28.70;99.90;;;;;;5056653;28;20205;-75
2022/08/10 07:01:56;;;;;;;8.50;7.40;;;29.10;99.90;;;;;;5064783;28;20239;-76
2022/08/10 07:04:32;;;;;;;9.82;7.78;;;29.70;99.90;;;;;;5060474;28;20224;-75
2022/08/10 07:07:05;;;;;;;8.70;6.68;;;30.10;99.90;;;;;;5064557;28;20208;-77
2022/08/10 07:09:36;;;;;;;8.25;7.40;;;30.20;99.90;;;;;;5063355;28;20223;-76
2022/08/10 07:12:06;;;;;;;9.25;8.20;;;30.40;99.90;;;;;;5056415;28;20220;-76
2022/08/10 07:14:41;;;;;;;10.95;6.60;;;30.70;99.90;;;;;;5062912;28;20254;-77
2022/08/10 07:17:13;;;;;;;9.65;8.00;;;30.80;99.70;;;;;;5062211;28;20257;-76
2022/08/10 07:19:45;;;;;;;8.35;6.80;;;30.90;99.60;;;;;;5062290;28;20626;-76
2022/08/10 07:22:17;;;;;;;10.00;7.95;;;31.00;99.00;;;;;;5062114;28;20543;-76
2022/08/10 07:25:06;;;;;;;10.30;7.47;;;31.10;98.90;;;;;;5067501;28;20299;-76
2022/08/10 07:27:34;;;;;;;10.65;8.10;;;31.00;98.70;;;;;;5065098;28;20206;-75
2022/08/10 07:30:21;;;;;;;11.18;7.93;;;31.10;98.90;;;;;;5064159;28;20278;-76
2022/08/10 07:32:51;;;;;;;9.95;7.20;;;30.90;98.10;;;;;;5060357;28;20294;-75
2022/08/10 07:35:20;;;;;;;7.38;6.65;;;31.10;97.80;;;;;;5063344;28;20216;-76
2022/08/10 07:37:50;;;;;;;8.18;7.00;;;31.20;97.20;;;;;;5067388;28;20836;-75
2022/08/10 07:40:19;;;;;;;10.00;8.07;;;31.30;96.80;;;;;;5062830;28;20223;-74
2022/08/10 07:42:51;;;;;;;8.00;7.20;;;31.30;96.60;;;;;;5067126;28;20263;-75
2022/08/10 07:45:17;;;;;;;6.90;6.20;;;31.30;96.70;;;;;;5064618;28;20239;-77
2022/08/10 07:47:54;;;;;;;6.88;6.18;;;31.40;96.40;;;;;;5066075;28;20279;-75
2022/08/10 07:50:23;;;;;;;9.07;6.78;;;31.50;96.10;;;;;;5066260;28;20259;-77
2022/08/10 07:52:54;;;;;;;8.23;7.25;;;31.60;95.80;;;;;;5062144;28;20212;-76
2022/08/10 07:55:21;;;;;;;9.23;6.65;;;31.70;95.60;;;;;;5063028;28;20586;-75
2022/08/10 07:58:10;;;;;;;8.55;6.70;;;31.70;95.30;;;;;;5065434;28;20624;-76
2022/08/10 08:00:38;;;;;;;7.35;6.35;;;31.70;95.00;;;;;;5060947;28;20230;-76
2022/08/10 08:03:08;;;;;;;8.43;6.68;;;31.80;94.80;;;;;;5061484;28;20305;-74
2022/08/10 08:05:35;;;;;;;9.75;5.78;;;32.00;94.60;;;;;;5064148;28;20208;-75
2022/08/10 08:08:22;;;;;;;7.53;6.25;;;32.10;94.10;;;;;;5065434;28;20215;-75
2022/08/10 08:10:50;;;;;;;9.15;7.03;;;32.00;94.00;;;;;;5062222;28;20617;-74
2022/08/10 08:13:20;;;;;;;10.77;6.65;;;31.90;93.90;;;;;;5066427;28;20292;-76
2022/08/10 08:15:50;;;;;;;9.98;6.88;;;31.70;93.80;;;;;;5066222;28;20399;-76
2022/08/10 08:18:37;;;;;;;7.57;6.88;;;31.60;93.90;;;;;;5056531;28;20320;-76
2022/08/10 08:21:09;;;;;;;9.20;6.20;;;31.50;93.90;;;;;;5063558;28;20630;-77
2022/08/10 08:23:56;;;;;;;7.50;6.18;;;31.60;93.90;;;;;;5067314;28;20948;-76
2022/08/10 08:26:42;;;;;;;8.48;6.53;;;31.60;94.00;;;;;;5068028;28;20266;-77
2022/08/10 08:29:18;;;;;;;9.88;6.00;;;31.50;93.70;;;;;;5060970;28;20672;-77
2022/08/10 08:31:47;;;;;;;7.07;5.82;;;31.40;93.70;;;;;;5058635;28;20209;-75
2022/08/10 08:34:33;;;;;;;7.35;5.85;;;31.40;93.60;;;;;;5061093;28;20310;-77
2022/08/10 08:37:01;;;;;;;5.35;4.85;;;31.60;93.70;;;;;;5064713;28;20254;-75
2022/08/10 08:39:30;;;;;;;5.57;4.53;;;32.00;93.30;;;;;;5066103;28;20270;-76
2022/08/10 08:42:35;;;;;;;9.30;4.93;;;32.20;92.90;;;;;;5063208;28;20232;-75
2022/08/10 08:45:24;;;;;;;6.40;4.47;;;32.30;92.00;;;;;;5064518;28;20323;-76
2022/08/10 08:48:18;;;;;;;5.88;5.20;;;32.30;91.50;;;;;;5065469;28;20612;-76
2022/08/10 08:50:50;;;;;;;6.55;4.20;;;32.30;92.00;;;;;;5065853;28;20722;-76
2022/08/10 08:53:49;;;;;;;8.07;4.65;;;32.40;91.90;;;;;;5061385;28;20205;-76
2022/08/10 08:56:51;;;;;;;6.00;4.45;;;32.50;92.10;;;;;;5059212;28;20598;-76
2022/08/10 08:59:39;;;;;;;5.18;3.47;;;32.40;90.90;;;;;;5059500;28;20212;-77
2022/08/10 09:02:32;;;;;;;5.60;4.30;;;32.30;90.80;;;;;;5057447;28;20213;-75
2022/08/10 09:05:42;;;;;;;8.10;4.10;;;32.10;90.70;;;;;;5063958;28;20267;-75
2022/08/10 09:08:45;;;;;;;4.50;3.55;;;32.00;91.20;;;;;;5057065;28;20212;-77
2022/08/10 09:11:44;;;;;;;7.00;3.67;;;31.90;91.20;;;;;;5062452;28;20285;-76
2022/08/10 09:14:29;;;;;;;4.60;3.10;;;32.00;91.40;;;;;;5063255;28;20246;-75
2022/08/10 09:17:11;;;;;;;4.70;3.40;;;32.00;91.80;;;;;;5058466;28;20211;-76
2022/08/10 09:19:56;;;;;;;5.82;3.05;;;32.00;90.90;;;;;;5058985;28;20207;-76
2022/08/10 09:22:41;;;;;;;5.55;3.10;;;31.80;90.80;;;;;;5065155;28;20675;-75
2022/08/10 09:25:17;;;;;;;3.25;2.95;;;31.70;90.40;;;;;;5055411;28;20607;-75
2022/08/10 09:27:46;;;;;;;3.22;2.72;;;31.80;90.60;;;;;;5061589;28;20247;-78
2022/08/10 09:30:21;;;;;;;4.70;3.10;;;31.80;90.40;;;;;;5061283;28;20557;-77
2022/08/10 09:33:10;;;;;;;7.13;3.20;;;31.80;90.70;;;;;;5060291;28;20217;-76
2022/08/10 09:36:19;;;;;;;3.78;3.00;;;31.80;90.80;;;;;;5059778;28;20200;-76
2022/08/10 09:39:17;;;;;;;4.70;2.90;;;31.70;90.90;;;;;;5061241;28;20222;-77
2022/08/10 09:42:30;;;;;;;4.57;3.05;;;31.70;92.50;;;;;;5054541;28;20197;-75
2022/08/10 09:45:38;;;;;;;2.83;2.55;;;31.70;92.60;;;;;;5056396;28;20676;-77
2022/08/10 09:48:21;;;;;;;5.20;3.00;;;31.60;90.60;;;;;;5062347;28;20260;-77
2022/08/10 09:51:08;;;;;;;5.05;2.97;;;31.40;90.50;;;;;;5060771;28;20223;-76
2022/08/10 09:54:03;;;;;;;4.40;2.80;;;31.40;90.70;;;;;;5059398;28;20685;-78
2022/08/10 09:56:55;;;;;;;4.90;2.97;;;31.30;90.60;;;;;;5054232;28;20738;-76
2022/08/10 09:59:44;;;;;;;4.63;2.78;;;31.30;90.50;;;;;;5063901;28;20230;-76
2022/08/10 10:02:51;;;;;;;7.15;2.83;;;31.30;90.70;;;;;;5053104;28;20334;-75
2022/08/10 10:05:24;;;;;;;7.25;2.70;;;31.30;90.80;;;;;;5057985;28;20268;-75
2022/08/10 10:08:09;;;;;;;7.15;3.22;;;31.30;90.30;;;;;;5058739;28;20201;-76
2022/08/10 10:11:06;;;;;;;3.15;2.13;;;31.40;90.50;;;;;;5062797;28;20231;-74
2022/08/10 10:14:07;;;;;;;5.82;2.30;;;31.40;89.80;;;;;;5055312;28;20223;-75
2022/08/10 10:16:59;;;;;;;3.88;2.33;;;31.40;90.20;;;;;;5062306;28;20197;-74
2022/08/10 10:19:38;;;;;;;4.40;2.05;;;31.50;88.40;;;;;;5051808;28;20241;-75
2022/08/10 10:22:12;;;;;;;4.40;2.20;;;31.40;88.20;;;;;;5057920;28;20212;-73
2022/08/10 10:25:20;;;;;;;2.53;2.00;;;31.50;88.40;;;;;;5057868;28;20232;-76
2022/08/10 10:28:12;;;;;;;5.95;2.40;;;31.40;84.70;;;;;;5048838;28;20205;-75
2022/08/10 10:30:56;;;;;;;3.75;2.05;;;31.40;87.00;;;;;;5060048;28;20209;-74
2022/08/10 10:34:30;;;;;;;4.85;2.30;;;31.40;82.90;;;;;;5057203;28;20744;-75
2022/08/10 10:37:00;;;;;;;6.90;2.45;;;31.30;84.70;;;;;;5037889;28;20241;-75
2022/08/10 10:39:27;;;;;;;4.43;2.20;;;31.30;85.20;;;;;;5042861;28;20202;-75
2022/08/10 10:42:12;;;;;;;3.97;2.13;;;31.30;85.20;;;;;;5025259;28;20228;-74
2022/08/10 10:45:14;;;;;;;3.70;2.42;;;31.40;85.20;;;;;;5057365;28;20686;-74
2022/08/10 10:47:59;;;;;;;2.33;2.08;;;31.50;84.30;;;;;;5063418;28;20217;-75
2022/08/10 10:50:36;;;;;;;3.00;2.15;;;31.50;84.20;;;;;;5060684;28;20192;-75
2022/08/10 10:53:44;;;;;;;6.45;2.20;;;31.60;83.20;;;;;;5062776;28;20208;-73
2022/08/10 10:56:38;;;;;;;3.28;2.17;;;31.60;83.20;;;;;;5047114;28;20490;-74
2022/08/10 10:59:34;;;;;;;3.63;2.20;;;31.50;83.10;;;;;;5059365;28;20216;-75
2022/08/10 11:02:37;;;;;;;2.55;2.10;;;31.40;81.70;;;;;;5057097;28;20260;-76
2022/08/10 11:05:46;;;;;;;3.42;1.80;;;31.40;84.30;;;;;;5058488;28;20687;-74
2022/08/10 11:08:20;;;;;;;3.25;1.80;;;;;;;;;;5053380;28;20618;-74
2022/08/10 11:11:03;;;;;;;3.05;1.77;;;31.60;83.70;;;;;;5067964;28;20201;-75
2022/08/10 11:13:44;;;;;;;2.90;1.90;;;31.60;84.40;;;;;;5063690;28;20208;-75
2022/08/10 11:16:36;;;;;;;3.22;1.98;;;31.60;83.30;;;;;;5062125;28;20197;-75
2022/08/10 11:19:02;;;;;;;4.28;2.22;;;31.70;81.10;;;;;;5058125;28;20216;-75
2022/08/10 11:21:41;;;;;;;4.50;2.00;;;31.70;80.80;;;;;;5061133;28;20266;-74
2022/08/10 11:24:20;;;;;;;2.88;1.92;;;31.80;80.20;;;;;;5057577;28;20675;-75
2022/08/10 11:27:27;;;;;;;3.10;1.83;;;31.60;78.60;;;;;;5061347;28;20201;-75
2022/08/10 11:30:27;;;;;;;3.72;1.83;;;31.40;81.90;;;;;;5065521;28;20623;-76
2022/08/10 11:33:14;;;;;;;2.13;1.52;;;31.40;80.70;;;;;;5055067;28;20344;-75
2022/08/10 11:36:06;;;;;;;3.95;1.63;;;31.60;77.60;;;;;;5061705;28;20200;-75
2022/08/10 11:38:50;;;;;;;2.60;1.83;;;31.60;78.60;;;;;;5063459;28;20254;-75
2022/08/10 11:41:43;;;;;;;3.08;1.80;;;31.70;81.60;;;;;;5054598;28;20205;-74
2022/08/10 11:44:35;;;;;;;2.55;1.80;;;31.90;82.30;;;;;;5062817;28;20228;-76
2022/08/10 11:47:38;;;;;;;2.63;1.58;;;32.00;80.90;;;;;;5059177;28;20256;-75
2022/08/10 11:50:14;;;;;;;5.82;1.50;;;31.90;80.20;;;;;;5014741;28;20242;-75
2022/08/10 11:53:07;;;;;;;2.83;1.65;;;32.00;80.20;;;;;;5056893;28;20205;-75
2022/08/10 11:55:35;;;;;;;2.13;1.70;;;32.10;77.00;;;;;;5058919;28;20652;-76
2022/08/10 12:01:05;;;;;;;1.90;1.30;;;32.20;78.80;;;;;;5061143;28;20201;-75
2022/08/10 12:03:35;;;;;;;1.50;1.40;;;32.10;76.10;;;;;;5057531;28;20253;-76
2022/08/10 12:06:04;;;;;;;2.95;1.55;;;32.00;75.70;;;;;;5059633;28;20474;-78
2022/08/10 12:08:32;;;;;;;3.05;1.27;;;32.00;73.60;;;;;;5062979;28;20247;-75
2022/08/10 12:11:25;;;;;;;2.72;1.55;;;32.00;76.80;;;;;;5060902;28;20300;-76
2022/08/10 12:14:03;;;;;;;2.05;1.50;;;32.00;77.30;;;;;;5060539;28;20204;-75
2022/08/10 12:16:51;;;;;;;2.60;1.33;;;32.20;77.10;;;;;;5066551;28;20209;-74
2022/08/10 12:19:27;;;;;;;1.15;1.05;;;32.30;76.10;;;;;;5054053;28;20199;-76
2022/08/10 12:22:05;;;;;;;3.03;1.25;;;32.20;71.50;;;;;;5061215;28;20292;-75
2022/08/10 12:24:48;;;;;;;1.50;1.00;;;32.20;71.20;;;;;;5067346;28;20323;-75
2022/08/10 12:27:29;;;;;;;2.42;1.30;;;32.20;72.60;;;;;;5065071;28;20208;-74
2022/08/10 12:30:08;;;;;;;2.30;1.27;;;32.20;71.80;;;;;;5066247;28;20341;-75
2022/08/10 12:32:38;;;;;;;1.98;1.35;;;32.10;73.20;;;;;;5062415;28;20377;-75
2022/08/10 12:35:17;;;;;;;2.95;1.33;;;32.20;73.30;;;;;;5059684;28;20627;-74
2022/08/10 12:38:20;;;;;;;5.22;1.60;;;32.30;73.10;;;;;;5061078;28;20239;-76
2022/08/10 12:40:54;;;;;;;2.55;1.27;;;32.30;72.70;;;;;;5059565;28;20288;-76
2022/08/10 12:43:31;;;;;;;2.00;1.17;;;32.30;72.50;;;;;;5063849;28;20215;-74
2022/08/10 12:46:30;;;;;;;3.45;1.42;;;32.30;72.70;;;;;;5063288;28;20216;-76
2022/08/10 12:49:35;;;;;;;2.17;1.40;;;32.30;75.40;;;;;;5060633;28;20264;-74
2022/08/10 12:52:27;;;;;;;2.80;1.58;;;32.30;75.20;;;;;;5060588;28;20259;-75
2022/08/10 12:54:58;;;;;;;2.83;1.23;;;32.40;73.20;;;;;;5056194;28;20275;-75
2022/08/10 12:57:27;;;;;;;4.78;1.55;;;32.40;73.40;;;;;;5065173;28;20266;-75
2022/08/10 13:00:00;;;;;;;1.92;1.17;;;32.40;74.80;;;;;;5065896;28;20198;-75
2022/08/10 13:02:31;;;;;;;2.00;1.58;;;32.50;75.40;;;;;;5067835;28;20287;-77
2022/08/10 13:05:01;;;;;;;2.72;1.30;;;32.50;74.80;;;;;;5059584;28;20264;-75
2022/08/10 13:07:34;;;;;;;1.35;1.25;;;32.60;75.40;;;;;;5065943;28;20208;-75
2022/08/10 13:10:21;;;;;;;2.75;1.35;;;32.80;79.60;;;;;;5056233;28;20219;-78
2022/08/10 13:12:53;;;;;;;1.70;1.48;;;32.80;65.30;;;;;;5053123;28;20194;-75
2022/08/10 13:15:29;;;;;;;2.72;1.40;;;32.90;64.40;;;;;;5061756;28;20258;-77
2022/08/10 13:18:23;;;;;;;2.78;1.42;;;33.10;64.50;;;;;;5057284;28;20319;-76
2022/08/10 13:20:53;;;;;;;2.83;1.27;;;33.20;64.10;;;;;;5057658;28;20600;-77
2022/08/10 13:23:26;;;;;;;3.47;1.40;;;33.30;64.80;;;;;;5090208;28;20209;-75
2022/08/10 13:25:56;;;;;;;3.65;1.45;;;33.20;65.00;;;;;;5055786;28;20648;-75
2022/08/10 13:28:43;;;;;;;1.38;1.27;;;33.20;64.70;;;;;;5057618;28;20212;-76
2022/08/10 13:31:20;;;;;;;2.53;1.20;;;33.20;64.30;;;;;;5057027;28;20260;-76
2022/08/10 13:34:14;;;;;;;4.88;1.70;;;33.30;64.40;;;;;;5055319;28;20259;-75
2022/08/10 13:37:08;;;;;;;1.20;1.10;;;33.30;63.20;;;;;;5059785;28;20208;-76
2022/08/10 13:39:38;;;;;;;1.95;1.23;;;33.10;62.50;;;;;;5055752;28;20304;-75
2022/08/10 13:42:29;;;;;;;2.25;1.50;;;33.00;61.20;;;;;;5064594;28;20201;-76
2022/08/10 13:45:11;;;;;;;3.90;1.38;;;33.10;61.10;;;;;;5061280;28;20256;-77
2022/08/10 13:47:38;;;;;;;2.67;1.30;;;33.10;60.40;;;;;;5064570;28;20270;-78